createdAt,value
2018-08-24T00:00:31.662Z,0
2018-08-24T00:01:32.063Z,0
2018-08-24T00:02:32.037Z,0
2018-08-24T00:03:32.602Z,0
2018-08-24T00:04:32.031Z,0
2018-08-24T00:05:32.029Z,0
2018-08-24T00:06:32.035Z,0
2018-08-24T00:07:32.175Z,0
2018-08-24T00:08:32.079Z,0
2018-08-24T00:09:32.476Z,0
2018-08-24T00:10:32.071Z,0
2018-08-24T00:11:32.060Z,0
2018-08-24T00:12:32.085Z,0
2018-08-24T00:13:32.056Z,0
2018-08-24T00:14:32.049Z,0
2018-08-24T00:15:32.402Z,0
2018-08-24T00:16:32.066Z,0
2018-08-24T00:17:32.030Z,0
2018-08-24T00:18:32.090Z,0
2018-08-24T00:19:32.143Z,0
2018-08-24T00:20:32.098Z,0
2018-08-24T00:21:32.475Z,0
2018-08-24T00:22:32.073Z,0
2018-08-24T00:23:32.121Z,0
2018-08-24T00:24:32.088Z,0
2018-08-24T00:25:32.049Z,0
2018-08-24T00:26:32.058Z,0
2018-08-24T00:27:32.492Z,0
2018-08-24T00:28:32.109Z,0
2018-08-24T00:29:32.121Z,0
2018-08-24T00:30:32.115Z,0
2018-08-24T00:31:32.173Z,0
2018-08-24T00:32:32.077Z,0
2018-08-24T00:33:32.511Z,0
2018-08-24T00:34:32.077Z,0
2018-08-24T00:35:32.116Z,0
2018-08-24T00:36:32.088Z,0
2018-08-24T00:37:32.068Z,0
2018-08-24T00:38:32.153Z,0
2018-08-24T00:39:33.382Z,0
2018-08-24T00:40:32.129Z,0
2018-08-24T00:41:32.091Z,0
2018-08-24T00:42:32.139Z,0
2018-08-24T00:43:32.095Z,0
2018-08-24T00:44:32.113Z,0
2018-08-24T00:45:32.533Z,0
2018-08-24T00:48:39.002Z,0
2018-08-24T00:48:52.182Z,0
2018-08-24T00:49:51.295Z,0
2018-08-24T00:55:08.079Z,0
2018-08-24T00:55:20.349Z,0
2018-08-24T00:56:20.372Z,0
2018-08-24T00:57:20.284Z,0
2018-08-24T00:58:20.327Z,0
2018-08-24T00:59:20.661Z,0
2018-08-24T01:00:20.327Z,0
2018-08-24T01:01:20.351Z,0
2018-08-24T01:02:20.339Z,0
2018-08-24T01:03:20.345Z,0
2018-08-24T01:04:20.365Z,0
2018-08-24T01:05:21.773Z,0
2018-08-24T01:06:20.339Z,0
2018-08-24T01:07:20.302Z,0
2018-08-24T01:08:20.343Z,0
2018-08-24T01:09:20.323Z,0
2018-08-24T01:10:20.368Z,0
2018-08-24T01:11:20.656Z,0
2018-08-24T01:12:20.388Z,0
2018-08-24T01:13:20.340Z,0
2018-08-24T01:14:20.387Z,0
2018-08-24T01:15:20.333Z,0
2018-08-24T01:16:20.364Z,0
2018-08-24T01:17:20.596Z,0
2018-08-24T01:18:20.352Z,0
2018-08-24T01:19:20.360Z,0
2018-08-24T01:20:20.356Z,0
2018-08-24T01:21:20.338Z,0
2018-08-24T01:22:20.339Z,0
2018-08-24T01:23:20.669Z,0
2018-08-24T01:24:20.354Z,0
2018-08-24T01:25:20.353Z,0
2018-08-24T01:26:20.382Z,0
2018-08-24T01:27:20.313Z,0
2018-08-24T01:28:20.372Z,0
2018-08-24T01:29:20.634Z,0
2018-08-24T01:30:20.359Z,0
2018-08-24T01:31:20.367Z,0
2018-08-24T01:32:20.415Z,0
2018-08-24T01:33:20.436Z,0
2018-08-24T01:34:20.386Z,0
2018-08-24T01:35:20.731Z,0
2018-08-24T01:36:20.376Z,0
2018-08-24T01:37:20.402Z,0
2018-08-24T01:38:20.412Z,0
2018-08-24T01:39:20.372Z,0
2018-08-24T01:40:20.437Z,0
2018-08-24T01:41:20.834Z,0
2018-08-24T01:42:20.393Z,0
2018-08-24T01:43:20.417Z,0
2018-08-24T01:44:20.423Z,0
2018-08-24T01:45:20.425Z,0
2018-08-24T01:46:20.428Z,0
2018-08-24T01:47:20.785Z,0
2018-08-24T01:48:20.397Z,0
2018-08-24T01:49:20.419Z,0
2018-08-24T01:50:20.425Z,0
2018-08-24T01:51:20.382Z,0
2018-08-24T01:52:20.391Z,0
2018-08-24T01:53:20.818Z,0
2018-08-24T01:54:20.418Z,0
2018-08-24T01:55:20.419Z,0
2018-08-24T01:56:20.416Z,0
2018-08-24T01:57:20.464Z,0
2018-08-24T01:58:20.408Z,0
2018-08-24T01:59:20.798Z,0
2018-08-24T02:00:20.433Z,0
2018-08-24T02:01:20.420Z,0
2018-08-24T02:02:20.421Z,0
2018-08-24T02:03:20.431Z,0
2018-08-24T02:04:20.472Z,0
2018-08-24T02:05:20.701Z,0
2018-08-24T02:06:20.765Z,0
2018-08-24T02:07:20.460Z,0
2018-08-24T02:08:20.440Z,0
2018-08-24T02:09:20.440Z,0
2018-08-24T02:10:20.476Z,0
2018-08-24T02:11:20.704Z,0
2018-08-24T02:12:20.695Z,0
2018-08-24T02:13:20.455Z,0
2018-08-24T02:20:47.740Z,0
2018-08-24T02:20:59.945Z,0
2018-08-24T02:21:59.981Z,0
2018-08-24T02:22:59.955Z,0
2018-08-24T02:23:59.980Z,0
2018-08-24T02:24:59.993Z,0
2018-08-24T02:26:00.266Z,0
2018-08-24T02:26:59.966Z,0
2018-08-24T02:27:59.977Z,0
2018-08-24T02:28:59.979Z,0
2018-08-24T02:29:59.984Z,0
2018-08-24T02:30:59.959Z,0
2018-08-24T02:32:00.290Z,0
2018-08-24T02:33:00.009Z,0
2018-08-24T02:34:00.010Z,0
2018-08-24T02:35:00.018Z,0
2018-08-24T02:35:59.994Z,0
2018-08-24T02:36:59.996Z,0
2018-08-24T02:38:00.325Z,0
2018-08-24T02:38:59.985Z,0
2018-08-24T02:39:59.997Z,0
2018-08-24T02:41:00.293Z,0
2018-08-24T02:41:59.997Z,0
2018-08-24T02:43:00.043Z,0
2018-08-24T02:44:00.005Z,0
2018-08-24T02:45:00.115Z,0
2018-08-24T02:46:00.008Z,0
2018-08-24T02:47:00.303Z,0
2018-08-24T02:48:00.038Z,0
2018-08-24T02:49:00.009Z,0
2018-08-24T02:50:00.293Z,0
2018-08-24T02:51:00.029Z,0
2018-08-24T02:52:00.028Z,0
2018-08-24T02:53:00.042Z,0
2018-08-24T02:54:00.002Z,0
2018-08-24T02:55:00.051Z,0
2018-08-24T02:56:00.329Z,0
2018-08-24T02:57:00.025Z,0
2018-08-24T02:57:59.995Z,0
2018-08-24T02:59:00.041Z,0
2018-08-24T03:10:49.238Z,0
2018-08-24T03:11:01.480Z,0
2018-08-24T03:12:01.521Z,0
2018-08-24T03:13:01.458Z,0
2018-08-24T03:14:01.475Z,0
2018-08-24T03:15:01.820Z,0
2018-08-24T03:16:01.800Z,0
2018-08-24T03:17:01.430Z,0
2018-08-24T03:18:01.457Z,0
2018-08-24T03:19:01.429Z,0
2018-08-24T03:20:01.485Z,0
2018-08-24T03:21:01.753Z,0
2018-08-24T03:22:01.486Z,0
2018-08-24T03:23:01.459Z,0
2018-08-24T03:30:28.841Z,0
2018-08-24T03:30:41.117Z,0
2018-08-24T03:31:41.104Z,0
2018-08-24T03:32:41.117Z,0
2018-08-24T03:33:41.190Z,0
2018-08-24T03:34:41.157Z,0
2018-08-24T03:35:42.437Z,0
2018-08-24T03:36:41.108Z,0
2018-08-24T03:37:41.150Z,0
2018-08-24T03:38:41.101Z,0
2018-08-24T03:39:41.128Z,0
2018-08-24T03:40:41.113Z,0
2018-08-24T03:41:42.473Z,0
2018-08-24T03:42:41.120Z,0
2018-08-24T03:43:41.120Z,0
2018-08-24T03:44:41.116Z,0
2018-08-24T03:45:41.147Z,0
2018-08-24T03:46:41.102Z,0
2018-08-24T03:47:42.472Z,0
2018-08-24T03:48:41.142Z,0
2018-08-24T03:49:41.115Z,0
2018-08-24T03:50:41.193Z,0
2018-08-24T03:51:41.132Z,0
2018-08-24T03:52:41.261Z,0
2018-08-24T03:53:42.527Z,0
2018-08-24T03:54:41.149Z,0
2018-08-24T03:55:41.151Z,0
2018-08-24T03:56:41.139Z,0
2018-08-24T03:57:41.173Z,0
2018-08-24T03:58:41.153Z,0
2018-08-24T03:59:41.589Z,0
2018-08-24T04:00:41.160Z,0
2018-08-24T04:01:41.236Z,0
2018-08-24T04:02:41.168Z,0
2018-08-24T04:03:41.146Z,0
2018-08-24T04:04:41.280Z,0
2018-08-24T04:05:41.478Z,4
2018-08-24T04:06:41.160Z,0
2018-08-24T04:07:41.200Z,0
2018-08-24T04:08:41.149Z,0
2018-08-24T04:09:41.185Z,4
2018-08-24T04:10:41.159Z,4
2018-08-24T04:11:41.497Z,0
2018-08-24T04:12:41.181Z,4
2018-08-24T04:13:41.184Z,4
2018-08-24T04:14:41.212Z,4
2018-08-24T04:15:41.191Z,4
2018-08-24T04:20:59.938Z,8
2018-08-24T04:21:12.247Z,8
2018-08-24T04:22:12.217Z,8
2018-08-24T04:23:12.171Z,4
2018-08-24T04:24:12.225Z,8
2018-08-24T04:25:12.199Z,8
2018-08-24T04:26:12.698Z,8
2018-08-24T04:27:12.159Z,8
2018-08-24T04:28:12.150Z,8
2018-08-24T04:29:12.195Z,12
2018-08-24T04:30:12.202Z,12
2018-08-24T04:31:12.176Z,16
2018-08-24T04:32:12.589Z,20
2018-08-24T04:33:12.234Z,20
2018-08-24T04:34:12.221Z,20
2018-08-24T04:35:12.401Z,24
2018-08-24T04:36:12.177Z,24
2018-08-24T04:37:12.277Z,24
2018-08-24T04:38:14.546Z,28
2018-08-24T04:39:12.188Z,28
2018-08-24T04:40:12.296Z,28
2018-08-24T04:41:12.236Z,28
2018-08-24T04:42:12.211Z,28
2018-08-24T04:43:12.158Z,28
2018-08-24T04:44:12.538Z,32
2018-08-24T04:45:12.208Z,32
2018-08-24T04:46:12.252Z,32
2018-08-24T04:47:12.249Z,36
2018-08-24T04:48:12.223Z,36
2018-08-24T04:49:12.228Z,36
2018-08-24T04:50:12.599Z,40
2018-08-24T04:51:12.176Z,40
2018-08-24T04:52:12.219Z,40
2018-08-24T04:53:12.215Z,40
2018-08-24T04:54:12.215Z,44
2018-08-24T04:55:12.196Z,48
2018-08-24T04:56:12.775Z,48
2018-08-24T04:57:12.240Z,52
2018-08-24T04:58:12.289Z,60
2018-08-24T05:00:31.613Z,64
2018-08-24T05:01:31.990Z,68
2018-08-24T05:02:31.652Z,72
2018-08-24T05:03:31.658Z,76
2018-08-24T05:04:31.616Z,76
2018-08-24T05:05:31.678Z,76
2018-08-24T05:06:31.653Z,76
2018-08-24T05:07:32.030Z,76
2018-08-24T05:08:31.714Z,76
2018-08-24T05:09:31.681Z,80
2018-08-24T05:10:31.653Z,80
2018-08-24T05:11:31.711Z,84
2018-08-24T05:12:31.685Z,88
2018-08-24T05:13:33.006Z,88
2018-08-24T05:14:31.666Z,88
2018-08-24T05:15:31.682Z,92
2018-08-24T05:16:31.684Z,92
2018-08-24T05:17:31.671Z,96
2018-08-24T05:18:31.730Z,92
2018-08-24T05:19:32.143Z,96
2018-08-24T05:20:31.675Z,88
2018-08-24T05:21:31.849Z,84
2018-08-24T05:22:31.688Z,76
2018-08-24T05:23:31.691Z,76
2018-08-24T05:24:31.730Z,72
2018-08-24T05:25:35.327Z,72
2018-08-24T05:26:43.259Z,76
2018-08-24T05:27:33.599Z,76
2018-08-24T05:28:31.995Z,76
2018-08-24T05:29:42.041Z,76
2018-08-24T05:30:34.332Z,80
2018-08-24T05:31:32.113Z,88
2018-08-24T05:32:31.750Z,92
2018-08-24T05:33:31.693Z,100
2018-08-24T05:34:31.690Z,108
2018-08-24T05:35:31.811Z,124
2018-08-24T05:36:31.707Z,136
2018-08-24T05:37:32.127Z,152
2018-08-24T05:38:31.728Z,164
2018-08-24T05:39:31.762Z,176
2018-08-24T05:40:31.693Z,192
2018-08-24T05:41:31.877Z,208
2018-08-24T05:42:31.707Z,228
2018-08-24T05:43:32.058Z,244
2018-08-24T05:44:31.725Z,256
2018-08-24T05:45:31.797Z,260
2018-08-24T05:46:32.117Z,264
2018-08-24T05:47:31.739Z,288
2018-08-24T05:48:33.668Z,332
2018-08-24T05:49:32.097Z,272
2018-08-24T05:50:31.812Z,284
2018-08-24T05:51:31.779Z,248
2018-08-24T05:52:31.781Z,260
2018-08-24T05:53:31.755Z,268
2018-08-24T05:54:31.760Z,308
2018-08-24T05:55:32.193Z,364
2018-08-24T05:56:31.775Z,400
2018-08-24T06:01:48.971Z,1008
2018-08-24T06:02:01.567Z,988
2018-08-24T06:03:01.207Z,984
2018-08-24T06:04:01.203Z,1040
2018-08-24T06:05:01.170Z,1140
2018-08-24T06:06:01.466Z,1184
2018-08-24T06:07:01.236Z,1088
2018-08-24T06:08:02.657Z,828
2018-08-24T06:09:01.212Z,656
2018-08-24T06:10:01.241Z,1188
2018-08-24T06:11:01.180Z,1332
2018-08-24T06:12:01.216Z,1272
2018-08-24T06:13:01.208Z,1212
2018-08-24T06:14:01.542Z,1088
2018-08-24T06:15:01.249Z,1000
2018-08-24T06:16:01.448Z,1060
2018-08-24T06:17:01.221Z,1028
2018-08-24T06:18:01.240Z,1020
2018-08-24T06:19:01.229Z,1068
2018-08-24T06:20:01.620Z,1128
2018-08-24T06:21:01.251Z,1128
2018-08-24T06:22:01.267Z,1088
2018-08-24T06:23:01.221Z,1040
2018-08-24T06:24:01.277Z,976
2018-08-24T06:25:01.247Z,1008
2018-08-24T06:26:01.644Z,988
2018-08-24T06:27:01.263Z,892
2018-08-24T06:28:01.835Z,896
2018-08-24T06:29:01.241Z,880
2018-08-24T06:30:01.272Z,632
2018-08-24T06:31:01.251Z,784
2018-08-24T06:32:01.560Z,696
2018-08-24T06:33:01.323Z,468
2018-08-24T06:34:01.237Z,548
2018-08-24T06:35:01.204Z,372
2018-08-24T06:36:01.246Z,380
2018-08-24T06:37:01.413Z,312
2018-08-24T06:38:01.596Z,292
2018-08-24T06:39:01.274Z,280
2018-08-24T06:40:01.344Z,256
2018-08-24T06:41:01.243Z,244
2018-08-24T06:42:01.559Z,252
2018-08-24T06:43:01.297Z,284
2018-08-24T06:44:02.658Z,344
2018-08-24T06:45:01.329Z,396
2018-08-24T06:46:01.272Z,524
2018-08-24T06:47:01.289Z,616
2018-08-24T06:48:01.284Z,604
2018-08-24T06:49:01.288Z,484
2018-08-24T06:50:01.707Z,440
2018-08-24T06:51:01.380Z,488
2018-08-24T06:52:01.270Z,584
2018-08-24T06:53:01.496Z,840
2018-08-24T06:54:01.643Z,940
2018-08-24T06:55:01.291Z,976
2018-08-24T06:56:01.625Z,688
2018-08-24T06:57:01.313Z,1072
2018-08-24T06:58:01.284Z,948
2018-08-24T07:01:08.440Z,912
2018-08-24T07:01:21.312Z,868
2018-08-24T07:02:20.653Z,720
2018-08-24T07:03:20.729Z,692
2018-08-24T07:04:20.672Z,676
2018-08-24T07:05:20.648Z,768
2018-08-24T07:06:20.645Z,724
2018-08-24T07:07:24.634Z,1044
2018-08-24T07:08:20.812Z,1320
2018-08-24T07:09:20.774Z,1384
2018-08-24T07:10:20.644Z,612
2018-08-24T07:11:20.663Z,560
2018-08-24T07:12:20.649Z,1412
2018-08-24T07:13:22.041Z,640
2018-08-24T07:14:20.635Z,508
2018-08-24T07:15:20.669Z,740
2018-08-24T07:16:20.715Z,340
2018-08-24T07:17:20.695Z,408
2018-08-24T07:18:20.722Z,1228
2018-08-24T07:19:21.317Z,1784
2018-08-24T07:20:20.638Z,1940
2018-08-24T07:21:20.659Z,2360
2018-08-24T07:22:20.684Z,596
2018-08-24T07:23:20.656Z,616
2018-08-24T07:24:20.694Z,408
2018-08-24T07:25:21.161Z,352
2018-08-24T07:26:20.709Z,312
2018-08-24T07:27:20.726Z,324
2018-08-24T07:28:20.691Z,412
2018-08-24T07:29:20.678Z,488
2018-08-24T07:30:20.708Z,480
2018-08-24T07:31:21.089Z,528
2018-08-24T07:32:20.732Z,856
2018-08-24T07:33:20.728Z,2056
2018-08-24T07:34:20.709Z,1904
2018-08-24T07:35:20.749Z,2056
2018-08-24T07:36:20.746Z,840
2018-08-24T07:37:22.062Z,1672
2018-08-24T07:38:20.717Z,1944
2018-08-24T07:39:20.892Z,2304
2018-08-24T07:40:20.696Z,2296
2018-08-24T07:41:20.942Z,1892
2018-08-24T07:42:20.754Z,888
2018-08-24T07:43:23.117Z,796
2018-08-24T07:44:20.758Z,856
2018-08-24T07:45:20.906Z,2584
2018-08-24T07:46:20.775Z,1460
2018-08-24T07:47:20.782Z,596
2018-08-24T07:48:20.783Z,536
2018-08-24T07:49:22.191Z,532
2018-08-24T07:50:20.829Z,504
2018-08-24T07:51:20.768Z,528
2018-08-24T07:52:20.719Z,1100
2018-08-24T07:53:20.766Z,1064
2018-08-24T07:54:20.773Z,2144
2018-08-24T07:55:21.240Z,644
2018-08-24T07:56:20.769Z,740
2018-08-24T07:57:20.824Z,664
2018-08-24T07:58:20.789Z,460
2018-08-24T07:59:20.799Z,444
2018-08-24T08:00:20.770Z,424
2018-08-24T08:01:21.093Z,436
2018-08-24T08:02:20.803Z,1432
2018-08-24T08:03:20.858Z,564
2018-08-24T08:04:20.850Z,1196
2018-08-24T08:05:20.988Z,1840
2018-08-24T08:06:20.801Z,1624
2018-08-24T08:07:22.167Z,2132
2018-08-24T08:08:21.122Z,2108
2018-08-24T08:09:20.821Z,1952
2018-08-24T08:10:20.766Z,1912
2018-08-24T08:11:20.784Z,2044
2018-08-24T08:12:20.810Z,2100
2018-08-24T08:13:21.114Z,1108
2018-08-24T08:14:20.792Z,2028
2018-08-24T08:15:20.798Z,792
2018-08-24T08:16:20.838Z,792
2018-08-24T08:17:20.831Z,1080
2018-08-24T08:18:20.286Z,1516
2018-08-24T08:19:21.433Z,760
2018-08-24T08:20:20.798Z,616
2018-08-24T08:21:20.827Z,512
2018-08-24T08:22:20.820Z,408
2018-08-24T08:23:20.908Z,368
2018-08-24T08:24:20.796Z,364
2018-08-24T08:25:21.076Z,400
2018-08-24T08:26:20.867Z,436
2018-08-24T08:33:01.419Z,248
2018-08-24T08:34:01.436Z,260
2018-08-24T08:35:01.571Z,272
2018-08-24T08:36:01.375Z,284
2018-08-24T08:37:01.416Z,264
2018-08-24T08:38:01.722Z,216
2018-08-24T08:39:01.583Z,180
2018-08-24T08:40:01.431Z,172
2018-08-24T08:41:01.482Z,168
2018-08-24T08:42:01.484Z,172
2018-08-24T08:43:01.430Z,176
2018-08-24T08:44:01.812Z,188
2018-08-24T08:45:01.562Z,208
2018-08-24T08:46:01.470Z,228
2018-08-24T08:47:01.407Z,240
2018-08-24T08:48:01.440Z,248
2018-08-24T08:49:01.462Z,244
2018-08-24T08:50:01.744Z,224
2018-08-24T08:51:01.441Z,228
2018-08-24T08:52:01.476Z,244
2018-08-24T08:53:01.448Z,252
2018-08-24T08:54:01.469Z,276
2018-08-24T08:55:01.452Z,308
2018-08-24T08:56:01.781Z,320
2018-08-24T08:57:01.471Z,304
2018-08-24T08:58:01.452Z,320
2018-08-24T08:59:01.483Z,380
2018-08-24T09:00:01.498Z,484
2018-08-24T09:01:01.541Z,1440
2018-08-24T09:02:01.805Z,1292
2018-08-24T09:03:01.507Z,892
2018-08-24T09:04:01.510Z,1080
2018-08-24T09:05:01.524Z,816
2018-08-24T09:06:01.615Z,836
2018-08-24T09:07:01.462Z,976
2018-08-24T09:08:01.884Z,1252
2018-08-24T09:09:01.497Z,1160
2018-08-24T09:10:01.464Z,1728
2018-08-24T09:11:01.470Z,1784
2018-08-24T09:12:01.531Z,1768
2018-08-24T09:13:01.700Z,1740
2018-08-24T09:14:01.746Z,1412
2018-08-24T09:15:01.552Z,1388
2018-08-24T09:16:01.508Z,1520
2018-08-24T09:17:01.472Z,636
2018-08-24T09:18:01.501Z,680
2018-08-24T09:19:01.659Z,444
2018-08-24T09:20:01.939Z,368
2018-08-24T09:21:01.507Z,308
2018-08-24T09:22:01.502Z,284
2018-08-24T09:23:01.460Z,304
2018-08-24T09:24:01.509Z,356
2018-08-24T09:25:01.552Z,500
2018-08-24T09:30:18.783Z,792
2018-08-24T09:30:31.026Z,780
2018-08-24T09:31:31.117Z,1456
2018-08-24T09:32:31.169Z,1548
2018-08-24T09:33:30.988Z,1544
2018-08-24T09:34:31.416Z,692
2018-08-24T09:35:31.119Z,620
2018-08-24T09:36:31.007Z,584
2018-08-24T09:37:31.019Z,592
2018-08-24T09:38:31.024Z,568
2018-08-24T09:39:31.131Z,572
2018-08-24T09:40:31.343Z,592
2018-08-24T09:41:31.016Z,616
2018-08-24T09:42:31.127Z,600
2018-08-24T09:43:31.140Z,644
2018-08-24T09:44:31.035Z,580
2018-08-24T09:45:31.032Z,640
2018-08-24T09:46:34.589Z,636
2018-08-24T09:47:31.028Z,1164
2018-08-24T09:48:31.037Z,1316
2018-08-24T09:49:31.063Z,1552
2018-08-24T09:50:31.109Z,1056
2018-08-24T09:51:31.069Z,1456
2018-08-24T09:52:31.329Z,732
2018-08-24T09:53:31.195Z,736
2018-08-24T09:54:31.074Z,728
2018-08-24T09:55:31.108Z,776
2018-08-24T09:56:31.112Z,756
2018-08-24T09:57:31.156Z,688
2018-08-24T09:58:32.399Z,728
2018-08-24T09:59:31.086Z,772
2018-08-24T10:00:31.067Z,1504
2018-08-24T10:01:31.128Z,1540
2018-08-24T10:02:31.153Z,1364
2018-08-24T10:03:31.120Z,780
2018-08-24T10:04:31.517Z,788
2018-08-24T10:05:31.145Z,896
2018-08-24T10:06:31.178Z,1272
2018-08-24T10:07:31.088Z,768
2018-08-24T10:08:31.145Z,1228
2018-08-24T10:09:31.048Z,1008
2018-08-24T10:10:31.359Z,892
2018-08-24T10:11:31.061Z,1076
2018-08-24T10:12:31.082Z,620
2018-08-24T10:13:31.145Z,576
2018-08-24T10:14:31.049Z,568
2018-08-24T10:15:31.064Z,736
2018-08-24T10:16:31.349Z,776
2018-08-24T10:17:31.079Z,752
2018-08-24T10:18:31.075Z,644
2018-08-24T10:19:31.144Z,640
2018-08-24T10:20:31.096Z,612
2018-08-24T10:21:51.035Z,568
2018-08-24T10:22:31.510Z,576
2018-08-24T10:23:31.111Z,572
2018-08-24T10:24:31.118Z,584
2018-08-24T10:25:31.191Z,564
2018-08-24T10:26:31.091Z,540
2018-08-24T10:27:31.104Z,612
2018-08-24T10:28:31.448Z,988
2018-08-24T10:29:31.283Z,1012
2018-08-24T10:30:31.098Z,1164
2018-08-24T10:31:31.129Z,1376
2018-08-24T10:32:31.148Z,1368
2018-08-24T10:33:31.168Z,1332
2018-08-24T10:34:31.477Z,1404
2018-08-24T10:35:31.186Z,1432
2018-08-24T10:36:31.177Z,1416
2018-08-24T10:37:31.137Z,1368
2018-08-24T10:38:31.134Z,1412
2018-08-24T10:39:31.119Z,1424
2018-08-24T10:40:31.436Z,1460
2018-08-24T10:41:31.153Z,1428
2018-08-24T10:42:31.163Z,1408
2018-08-24T10:43:31.151Z,1388
2018-08-24T10:44:31.186Z,1284
2018-08-24T10:45:31.189Z,1276
2018-08-24T10:46:31.458Z,656
2018-08-24T10:47:31.293Z,1492
2018-08-24T10:48:31.198Z,1528
2018-08-24T10:49:31.414Z,1540
2018-08-24T10:50:31.219Z,820
2018-08-24T10:51:31.312Z,1456
2018-08-24T10:52:31.510Z,1488
2018-08-24T10:53:31.693Z,864
2018-08-24T10:54:31.135Z,928
2018-08-24T10:55:31.145Z,1508
2018-08-24T10:56:31.170Z,820
2018-08-24T10:57:31.268Z,1368
2018-08-24T11:02:48.166Z,1412
2018-08-24T11:03:00.407Z,1448
2018-08-24T11:04:00.385Z,1588
2018-08-24T11:05:00.355Z,1604
2018-08-24T11:06:00.364Z,1488
2018-08-24T11:07:00.709Z,1564
2018-08-24T11:08:00.434Z,1560
2018-08-24T11:09:00.430Z,1384
2018-08-24T11:10:00.354Z,680
2018-08-24T11:11:00.394Z,772
2018-08-24T11:12:00.399Z,848
2018-08-24T11:13:00.661Z,696
2018-08-24T11:14:00.415Z,724
2018-08-24T11:15:00.385Z,1248
2018-08-24T11:16:00.373Z,748
2018-08-24T11:17:00.613Z,1084
2018-08-24T11:18:00.509Z,640
2018-08-24T11:19:00.755Z,632
2018-08-24T11:20:00.594Z,1372
2018-08-24T11:21:00.418Z,1444
2018-08-24T11:22:00.617Z,1384
2018-08-24T11:23:00.668Z,748
2018-08-24T11:24:00.574Z,692
2018-08-24T11:25:00.823Z,592
2018-08-24T11:26:00.450Z,656
2018-08-24T11:27:00.707Z,1568
2018-08-24T11:28:00.431Z,1648
2018-08-24T11:33:18.432Z,1536
2018-08-24T11:33:30.713Z,1080
2018-08-24T11:34:30.684Z,968
2018-08-24T11:35:30.693Z,884
2018-08-24T11:36:30.846Z,612
2018-08-24T11:37:30.687Z,1024
2018-08-24T11:38:30.974Z,768
2018-08-24T11:39:30.678Z,988
2018-08-24T11:40:30.667Z,1288
2018-08-24T11:41:30.690Z,1172
2018-08-24T11:42:30.703Z,708
2018-08-24T11:43:30.716Z,704
2018-08-24T11:44:30.983Z,1348
2018-08-24T11:45:30.721Z,668
2018-08-24T11:46:30.735Z,576
2018-08-24T11:47:30.728Z,576
2018-08-24T11:48:30.742Z,528
2018-08-24T11:49:30.673Z,500
2018-08-24T11:50:31.093Z,488
2018-08-24T11:51:30.692Z,476
2018-08-24T11:52:30.697Z,468
2018-08-24T11:53:30.703Z,460
2018-08-24T11:54:30.864Z,476
2018-08-24T11:55:30.723Z,532
2018-08-24T11:56:30.988Z,616
2018-08-24T11:57:30.704Z,1492
2018-08-24T11:58:30.736Z,1708
2018-08-24T11:59:30.769Z,1388
2018-08-24T12:00:30.751Z,824
2018-08-24T12:01:30.748Z,1020
2018-08-24T12:02:31.012Z,1512
2018-08-24T12:03:30.732Z,1480
2018-08-24T12:04:30.743Z,908
2018-08-24T12:05:30.716Z,812
2018-08-24T12:06:30.766Z,800
2018-08-24T12:07:30.718Z,636
2018-08-24T12:08:31.287Z,596
2018-08-24T12:09:30.736Z,840
2018-08-24T12:10:30.857Z,728
2018-08-24T12:11:30.722Z,776
2018-08-24T12:12:30.964Z,912
2018-08-24T12:13:30.775Z,988
2018-08-24T12:14:31.222Z,1272
2018-08-24T12:15:30.941Z,1276
2018-08-24T12:16:30.755Z,1564
2018-08-24T12:17:30.738Z,1468
2018-08-24T12:18:31.794Z,1276
2018-08-24T12:19:30.811Z,1068
2018-08-24T12:20:31.152Z,708
2018-08-24T12:21:30.924Z,660
2018-08-24T12:22:30.728Z,668
2018-08-24T12:23:30.822Z,1272
2018-08-24T12:24:30.923Z,1116
2018-08-24T12:25:30.766Z,672
2018-08-24T12:26:31.093Z,780
2018-08-24T12:27:30.824Z,820
2018-08-24T12:28:30.860Z,668
2018-08-24T12:29:30.842Z,772
2018-08-24T12:30:30.919Z,804
2018-08-24T12:31:30.841Z,920
2018-08-24T12:32:31.139Z,856
2018-08-24T12:33:30.775Z,852
2018-08-24T12:34:30.847Z,1012
2018-08-24T12:35:30.813Z,772
2018-08-24T12:36:30.820Z,692
2018-08-24T12:37:30.781Z,628
2018-08-24T12:38:31.117Z,600
2018-08-24T12:39:30.775Z,588
2018-08-24T12:40:30.803Z,572
2018-08-24T12:41:30.924Z,544
2018-08-24T12:42:30.899Z,516
2018-08-24T12:43:31.046Z,496
2018-08-24T12:44:31.100Z,484
2018-08-24T12:45:30.805Z,484
2018-08-24T12:46:30.769Z,500
2018-08-24T12:47:30.855Z,524
2018-08-24T12:48:30.822Z,560
2018-08-24T12:49:31.001Z,604
2018-08-24T12:50:32.227Z,684
2018-08-24T12:51:30.817Z,836
2018-08-24T12:52:30.857Z,1472
2018-08-24T12:53:30.827Z,816
2018-08-24T12:54:30.833Z,1016
2018-08-24T12:55:30.865Z,936
2018-08-24T12:56:32.141Z,784
2018-08-24T12:57:30.920Z,1076
2018-08-24T12:58:30.877Z,1264
2018-08-24T12:59:30.860Z,688
2018-08-24T13:00:30.872Z,856
2018-08-24T13:01:30.872Z,612
2018-08-24T13:02:31.158Z,560
2018-08-24T13:03:30.811Z,516
2018-08-24T13:04:30.902Z,500
2018-08-24T13:05:30.971Z,488
2018-08-24T13:06:30.915Z,472
2018-08-24T13:07:30.849Z,464
2018-08-24T13:08:31.241Z,464
2018-08-24T13:09:30.848Z,468
2018-08-24T13:10:30.900Z,468
2018-08-24T13:11:30.892Z,480
2018-08-24T13:12:30.880Z,520
2018-08-24T13:13:30.879Z,604
2018-08-24T13:14:32.199Z,660
2018-08-24T13:15:31.419Z,656
2018-08-24T13:16:30.831Z,644
2018-08-24T13:17:30.833Z,656
2018-08-24T13:18:30.842Z,676
2018-08-24T13:19:30.887Z,760
2018-08-24T13:20:31.194Z,856
2018-08-24T13:21:31.046Z,620
2018-08-24T13:22:30.847Z,584
2018-08-24T13:23:30.920Z,576
2018-08-24T13:24:30.949Z,568
2018-08-24T13:25:30.907Z,552
2018-08-24T13:26:31.161Z,640
2018-08-24T13:27:31.036Z,560
2018-08-24T13:28:30.854Z,576
2018-08-24T13:29:30.891Z,788
2018-08-24T13:30:30.898Z,592
2018-08-24T13:31:30.932Z,468
2018-08-24T13:32:31.160Z,476
2018-08-24T13:33:30.981Z,528
2018-08-24T13:34:30.951Z,548
2018-08-24T13:35:30.927Z,536
2018-08-24T13:36:30.934Z,524
2018-08-24T13:37:30.973Z,608
2018-08-24T13:38:31.254Z,604
2018-08-24T13:39:30.874Z,544
2018-08-24T13:40:30.895Z,520
2018-08-24T13:41:30.922Z,492
2018-08-24T13:42:30.945Z,460
2018-08-24T13:43:30.912Z,436
2018-08-24T13:44:32.183Z,420
2018-08-24T13:45:30.888Z,404
2018-08-24T13:46:30.944Z,384
2018-08-24T13:47:31.068Z,364
2018-08-24T13:48:31.034Z,348
2018-08-24T13:49:30.949Z,332
2018-08-24T13:50:31.319Z,320
2018-08-24T13:51:30.995Z,308
2018-08-24T13:52:30.972Z,292
2018-08-24T13:53:31.060Z,268
2018-08-24T13:54:30.954Z,248
2018-08-24T13:55:30.982Z,232
2018-08-24T13:56:31.240Z,216
2018-08-24T13:57:30.927Z,208
2018-08-24T13:58:30.947Z,204
2018-08-24T13:59:31.041Z,216
2018-08-24T14:00:30.987Z,228
2018-08-24T14:01:30.961Z,248
2018-08-24T14:02:32.304Z,264
2018-08-24T14:03:31.059Z,276
2018-08-24T14:04:31.032Z,292
2018-08-24T14:05:31.262Z,308
2018-08-24T14:06:31.283Z,316
2018-08-24T14:07:46.531Z,324
2018-08-24T14:08:34.236Z,340
2018-08-24T14:09:30.965Z,372
2018-08-24T14:10:31.021Z,416
2018-08-24T14:11:31.677Z,436
2018-08-24T14:12:30.960Z,436
2018-08-24T14:13:31.174Z,424
2018-08-24T14:14:31.378Z,400
2018-08-24T14:15:30.987Z,380
2018-08-24T14:16:30.983Z,364
2018-08-24T14:17:30.955Z,348
2018-08-24T14:18:31.024Z,340
2018-08-24T14:19:30.992Z,328
2018-08-24T14:20:31.257Z,308
2018-08-24T14:21:31.051Z,288
2018-08-24T14:22:31.020Z,264
2018-08-24T14:23:31.027Z,252
2018-08-24T14:24:31.000Z,256
2018-08-24T14:25:31.098Z,256
2018-08-24T14:26:31.423Z,260
2018-08-24T14:27:31.024Z,268
2018-08-24T14:28:31.018Z,268
2018-08-24T14:29:30.974Z,260
2018-08-24T14:30:31.077Z,252
2018-08-24T14:31:31.049Z,252
2018-08-24T14:32:31.358Z,256
2018-08-24T14:33:31.089Z,256
2018-08-24T14:34:31.032Z,256
2018-08-24T14:35:31.028Z,252
2018-08-24T14:36:31.053Z,248
2018-08-24T14:37:30.995Z,252
2018-08-24T14:38:31.436Z,268
2018-08-24T14:39:31.032Z,276
2018-08-24T14:40:31.013Z,272
2018-08-24T14:41:31.005Z,268
2018-08-24T14:42:31.020Z,284
2018-08-24T14:43:31.026Z,336
2018-08-24T14:44:32.372Z,436
2018-08-24T14:45:31.012Z,520
2018-08-24T14:46:31.098Z,824
2018-08-24T14:47:31.036Z,856
2018-08-24T14:48:31.076Z,904
2018-08-24T14:49:31.022Z,596
2018-08-24T14:50:32.325Z,516
2018-08-24T14:51:31.053Z,456